Aquatravesia — D5NA7 — position and weather

sailwx.info

Track history (hours):
 
Tides and Currents Weather Stations Pressure Air Temp Water Temp Dewpoint Dewpoint Depression Visibility Wind Speed Wind Dir Waves Ship Positions

Aquatravesia

Last reported at 2018-Feb-23 05:30 UTC. Time now 2018-Feb-23 05:57 UTC.
Position N 37°46' W 122°21'.

Length 244 m; draft 9.1 m.

Type: Ship. MMSI: 636017859.

Date/timePositionNaut miles runAvg speedWind from/ knotsBaromVisibWave heightAir tempDewpointWater temp
2018-Feb-23 05:30N 37°46' W 122°21'0 0.1
2018-Feb-23 05:01N 37°46' W 122°21'0 0.1
2018-Feb-23 04:28N 37°46' W 122°21'0 0.1
2018-Feb-23 03:59N 37°46' W 122°21'0 0.2
2018-Feb-23 03:29N 37°46' W 122°21'0 0.1
2018-Feb-23 02:59N 37°46' W 122°21'0 0.1
2018-Feb-23 02:29N 37°46' W 122°21'0 0.0
2018-Feb-23 01:58N 37°46' W 122°21'0 0.1
2018-Feb-23 01:28N 37°46' W 122°21'0 0.0
2018-Feb-23 00:59N 37°46' W 122°21'0 0.1
2018-Feb-23 00:29N 37°46' W 122°21'0 0.0
2018-Feb-22 23:59N 37°46' W 122°21'1 1.6
2018-Feb-22 23:31N 37°46' W 122°22'510.6
2018-Feb-22 23:00N 37°51' W 122°24'713.2
2018-Feb-22 22:30N 37°57' W 122°27'612.8
2018-Feb-22 22:01N 38°02' W 122°22'713.5
2018-Feb-22 21:28N 38°04' W 122°13'5 0.1
2018-Feb-21 11:42N 38°02' W 122°07'0 0.5
2018-Feb-21 11:30N 38°02' W 122°07'1 2.4
2018-Feb-21 10:59N 38°02' W 122°09'4 7.3
2018-Feb-21 10:28N 38°04' W 122°13'4 8.9
2018-Feb-21 10:01N 38°03' W 122°18'4 7.3
2018-Feb-21 09:30N 38°02' W 122°23'5 9.4
2018-Feb-21 09:01N 37°58' W 122°26'510.3
2018-Feb-21 08:30N 37°53' W 122°26'4 8.2
2018-Feb-21 08:01N 37°49' W 122°25'511.0
2018-Feb-21 07:31N 37°47' W 122°32'612.2
2018-Feb-21 07:00N 37°45' W 122°39'5 9.7
2018-Feb-21 06:31N 37°42' W 122°44'510.0
2018-Feb-21 06:00N 37°39' W 122°49'510.5
2018-Feb-21 05:31N 37°36' W 122°55'510.4
2018-Feb-21 05:00N 37°33' W 123°00'5 9.2
2018-Feb-21 04:30N 37°33' W 123°06'510.5
2018-Feb-21 04:00N 37°34' W 123°12'710.8
2018-Feb-21 03:20N 37°35' W 123°21'510.6
2018-Feb-21 02:53N 37°36' W 123°27'3 8.4
2018-Feb-21 02:28N 37°36' W 123°32'1 2.6
2018-Feb-21 02:00N 37°37' W 123°33'1 1.3
2018-Feb-21 01:30N 37°37' W 123°33'2 1.3
2018-Feb-21 00:08N 37°39' W 123°35'0 1.3
2018-Feb-20 23:52N 37°39' W 123°35'2 1.0
2018-Feb-20 21:31N 37°40' W 123°32'0 9.9
2018-Feb-20 21:30N 37°40' W 123°32'5 9.1
2018-Feb-20 21:00N 37°37' W 123°27'12 9.0
2018-Feb-20 19:41N 37°31' W 123°14'2 8.9
2018-Feb-20 19:29N 37°30' W 123°12'4 9.0
2018-Feb-20 19:00N 37°28' W 123°08'5 9.5
2018-Feb-20 18:30N 37°23' W 123°05'7 9.8
2018-Feb-20 17:45N 37°17' W 123°01'310.1
2018-Feb-20 17:29N 37°14' W 122°60'510.0
2018-Feb-20 17:00N 37°10' W 122°57'139 8.5
2018-Feb-20 00:40N 35°07' W 121°36'1 7.9
2018-Feb-20 00:30N 35°06' W 121°35'4 8.1
2018-Feb-20 00:00N 35°03' W 121°33'4 8.1
2018-Feb-19 23:30N 34°59' W 121°30'4 7.9
2018-Feb-19 23:00N 34°56' W 121°28'4 8.3
2018-Feb-19 22:30N 34°52' W 121°25'4 8.3
2018-Feb-19 22:00N 34°48' W 121°23'4 8.3
2018-Feb-19 21:30N 34°45' W 121°20'4 8.1
2018-Feb-19 21:00N 34°41' W 121°17'4 8.1
2018-Feb-19 20:30N 34°38' W 121°15'4 8.1
2018-Feb-19 20:00N 34°35' W 121°12'4 9.0
2018-Feb-19 19:30N 34°31' W 121°10'5 9.2
2018-Feb-19 19:00N 34°29' W 121°04'510.1
2018-Feb-19 18:30N 34°28' W 120°58'510.6
2018-Feb-19 18:00N 34°27' W 120°52'510.2
2018-Feb-19 17:30N 34°25' W 120°46'510.3
2018-Feb-19 17:00N 34°24' W 120°40'510.7
2018-Feb-19 16:30N 34°22' W 120°34'510.6
2018-Feb-19 16:00N 34°21' W 120°28'611.3
2018-Feb-19 15:30N 34°19' W 120°21'711.8
2018-Feb-19 14:55N 34°17' W 120°13'512.0
2018-Feb-19 14:30N 34°16' W 120°07'612.0
2018-Feb-19 14:00N 34°15' W 120°00'611.7
2018-Feb-19 13:28N 34°13' W 119°53'611.6
2018-Feb-19 12:58N 34°12' W 119°46'611.1
2018-Feb-19 12:28N 34°10' W 119°40'611.2
2018-Feb-19 11:57N 34°08' W 119°33'510.9
2018-Feb-19 11:30N 34°07' W 119°27'510.6
2018-Feb-19 11:00N 34°06' W 119°21'610.3
2018-Feb-19 10:27N 34°04' W 119°15'510.1
2018-Feb-19 09:56N 34°02' W 119°09'610.4
2018-Feb-19 09:24N 33°59' W 119°03'410.7
2018-Feb-19 08:59N 33°57' W 118°59'511.1
2018-Feb-19 08:30N 33°54' W 118°53'510.7
2018-Feb-19 08:00N 33°51' W 118°47'510.6
2018-Feb-19 07:30N 33°49' W 118°42'611.2
2018-Feb-19 07:00N 33°46' W 118°36'611.2
2018-Feb-19 06:30N 33°43' W 118°30'611.4
2018-Feb-19 06:00N 33°40' W 118°24'710.9
2018-Feb-19 05:23N 33°38' W 118°16'410.0
2018-Feb-19 05:00N 33°40' W 118°12'4 8.2
2018-Feb-19 04:30N 33°44' W 118°11'3 5.2
2018-Feb-19 04:00N 33°46' W 118°13'1 1.4
2018-Feb-19 03:30N 33°46' W 118°13'0 0.0
2018-Feb-19 03:00N 33°46' W 118°13'0 0.0
2018-Feb-19 02:30N 33°46' W 118°13'0 0.0
2018-Feb-19 02:00N 33°46' W 118°13'0 0.0
2018-Feb-19 01:30N 33°46' W 118°13'0 0.0
2018-Feb-19 01:00N 33°46' W 118°13'0 0.0
2018-Feb-19 00:30N 33°46' W 118°13'0 0.0
2018-Feb-19 00:00N 33°46' W 118°13'0 0.0
2018-Feb-18 23:30N 33°46' W 118°13'0 0.0
2018-Feb-18 23:00N 33°46' W 118°13'0 0.0
2018-Feb-18 22:30N 33°46' W 118°13'0 0.0
2018-Feb-18 22:00N 33°46' W 118°13'0 0.0
2018-Feb-18 21:30N 33°46' W 118°13'0 0.0
2018-Feb-18 21:00N 33°46' W 118°13'0 0.0
2018-Feb-18 20:30N 33°46' W 118°13'0 0.0
2018-Feb-18 20:00N 33°46' W 118°13'0 0.0
2018-Feb-18 19:30N 33°46' W 118°13'0 0.0
2018-Feb-18 19:00N 33°46' W 118°13'0 0.0
2018-Feb-18 18:30N 33°46' W 118°13'0 0.0
2018-Feb-18 18:00N 33°46' W 118°13'0 0.0
2018-Feb-18 17:30N 33°46' W 118°13'0 0.0
2018-Feb-18 17:00N 33°46' W 118°13'0 0.0
2018-Feb-18 16:30N 33°46' W 118°13'0 0.0
2018-Feb-18 16:00N 33°46' W 118°13'0 0.0
2018-Feb-18 15:31N 33°46' W 118°13'0 0.0
2018-Feb-18 15:00N 33°46' W 118°13'0 0.0
2018-Feb-18 14:30N 33°46' W 118°13'0 0.0
2018-Feb-18 13:59N 33°46' W 118°13'0 0.0
2018-Feb-18 13:29N 33°46' W 118°13'0 0.0
2018-Feb-18 13:00N 33°46' W 118°13'0 0.0
2018-Feb-18 12:31N 33°46' W 118°13'0 0.0
2018-Feb-18 12:00N 33°46' W 118°13'0 0.0
2018-Feb-18 11:30N 33°46' W 118°13'0 0.0
2018-Feb-18 10:59N 33°46' W 118°13'0 0.0
2018-Feb-18 10:31N 33°46' W 118°13'0 0.0
2018-Feb-18 10:00N 33°46' W 118°13'0 0.0
2018-Feb-18 09:31N 33°46' W 118°13'0 0.0
2018-Feb-18 09:00N 33°46' W 118°13'0 0.0
2018-Feb-18 08:30N 33°46' W 118°13'0 0.0
2018-Feb-18 08:00N 33°46' W 118°13'0 0.0
2018-Feb-18 07:30N 33°46' W 118°13'0 0.0
2018-Feb-18 07:00N 33°46' W 118°13'0 0.0
2018-Feb-18 06:30N 33°46' W 118°13'0 0.0
2018-Feb-18 05:59N 33°46' W 118°13'0 0.0
2018-Feb-18 05:30N 33°46' W 118°13'0 0.0
2018-Feb-18 05:01N 33°46' W 118°13'0 0.0
2018-Feb-18 04:30N 33°46' W 118°13'0 0.0
2018-Feb-18 04:01N 33°46' W 118°13'0 0.0
2018-Feb-18 03:30N 33°46' W 118°13'0 0.0
2018-Feb-18 03:00N 33°46' W 118°13'0 0.0
2018-Feb-18 02:30N 33°46' W 118°13'0 0.0
2018-Feb-18 02:01N 33°46' W 118°13'0 0.0
2018-Feb-18 01:30N 33°46' W 118°13'0 0.0
2018-Feb-18 01:00N 33°46' W 118°13'0 0.0
2018-Feb-18 00:30N 33°46' W 118°13'0 0.0
2018-Feb-18 00:00N 33°46' W 118°13'0 0.0
2018-Feb-17 23:31N 33°46' W 118°13'0 0.0
2018-Feb-17 23:00N 33°46' W 118°13'0 0.0
2018-Feb-17 22:31N 33°46' W 118°13'0 0.0
2018-Feb-17 22:00N 33°46' W 118°13'0 0.0
2018-Feb-17 21:30N 33°46' W 118°13'0 0.0
2018-Feb-17 21:00N 33°46' W 118°13'0 0.0
2018-Feb-17 20:30N 33°46' W 118°13'0 0.0
2018-Feb-17 20:00N 33°46' W 118°13'0 0.0
2018-Feb-17 19:30N 33°46' W 118°13'0 0.0
2018-Feb-17 19:00N 33°46' W 118°13'0 0.0
2018-Feb-17 18:30N 33°46' W 118°13'0 0.0
2018-Feb-17 18:00N 33°46' W 118°13'0 0.0
2018-Feb-17 17:30N 33°46' W 118°13'0 0.0
2018-Feb-17 17:00N 33°46' W 118°13'0 0.0
2018-Feb-17 16:30N 33°46' W 118°13'0 0.0
2018-Feb-17 16:00N 33°46' W 118°13'0 0.0
2018-Feb-17 15:30N 33°46' W 118°13'0 0.0
2018-Feb-17 15:00N 33°46' W 118°13'0 0.0
2018-Feb-17 14:29N 33°46' W 118°13'0 0.0
2018-Feb-17 13:58N 33°46' W 118°13'0 0.0
2018-Feb-17 13:30N 33°46' W 118°13'0 0.0
2018-Feb-17 13:00N 33°46' W 118°13'0 0.0
2018-Feb-17 12:30N 33°46' W 118°13'0 0.0
2018-Feb-17 12:00N 33°46' W 118°13'0 0.0
2018-Feb-17 11:30N 33°46' W 118°13'0 0.0
2018-Feb-17 11:00N 33°46' W 118°13'0 0.0
2018-Feb-17 10:30N 33°46' W 118°13'0 0.0
2018-Feb-17 10:00N 33°46' W 118°13'0 0.0
2018-Feb-17 09:28N 33°46' W 118°13'0 0.0
2018-Feb-17 09:00N 33°46' W 118°13'0 0.0
2018-Feb-17 08:30N 33°46' W 118°13'0 0.0
2018-Feb-17 07:56N 33°46' W 118°13'0 0.0
2018-Feb-17 07:30N 33°46' W 118°13'0 0.0
2018-Feb-17 07:00N 33°46' W 118°13'0 0.0
2018-Feb-17 06:30N 33°46' W 118°13'0 0.0
2018-Feb-17 06:00N 33°46' W 118°13'0 0.0
2018-Feb-17 05:30N 33°46' W 118°13'0 0.0
2018-Feb-17 05:00N 33°46' W 118°13'0 0.0
2018-Feb-17 04:30N 33°46' W 118°13'0 0.0
2018-Feb-17 04:00N 33°46' W 118°13'0 0.0
2018-Feb-17 03:30N 33°46' W 118°13'0 0.0
2018-Feb-17 03:00N 33°46' W 118°13'0 0.0
2018-Feb-17 02:30N 33°46' W 118°13'0 0.0
2018-Feb-17 02:00N 33°46' W 118°13'0 0.0
2018-Feb-17 01:30N 33°46' W 118°13'0 0.0
2018-Feb-17 01:00N 33°46' W 118°13'0 0.0
2018-Feb-17 00:30N 33°46' W 118°13'0 0.0
2018-Feb-17 00:00N 33°46' W 118°13'0 0.0
2018-Feb-16 23:30N 33°46' W 118°13'0 0.0
2018-Feb-16 23:00N 33°46' W 118°13'0 0.0
2018-Feb-16 22:30N 33°46' W 118°13'0 0.0
2018-Feb-16 22:01N 33°46' W 118°13'0 0.0
2018-Feb-16 21:29N 33°46' W 118°13'0 0.0
2018-Feb-16 21:01N 33°46' W 118°13'0 0.0
2018-Feb-16 20:31N 33°46' W 118°13'0 0.0
2018-Feb-16 20:01N 33°46' W 118°13'0 0.0
2018-Feb-16 19:30N 33°46' W 118°13'0 0.0
2018-Feb-16 19:00N 33°46' W 118°13'0 0.0
2018-Feb-16 18:31N 33°46' W 118°13'0 0.0
2018-Feb-16 18:00N 33°46' W 118°13'0 0.0
2018-Feb-16 17:30N 33°46' W 118°13'0 0.0
2018-Feb-16 17:00N 33°46' W 118°13'0 0.0
2018-Feb-16 16:30N 33°46' W 118°13'0 0.0
2018-Feb-16 16:00N 33°46' W 118°13'0 0.0
2018-Feb-16 15:30N 33°46' W 118°13'0 0.0
2018-Feb-16 15:00N 33°46' W 118°13'0 0.0
2018-Feb-16 14:30N 33°46' W 118°13'0 0.0
2018-Feb-16 13:59N 33°46' W 118°13'0 0.0
2018-Feb-16 13:30N 33°46' W 118°13'0 0.0
2018-Feb-16 13:00N 33°46' W 118°13'0 0.0
2018-Feb-16 12:30N 33°46' W 118°13'0 0.0
2018-Feb-16 12:00N 33°46' W 118°13'0 0.0
2018-Feb-16 11:30N 33°46' W 118°13'0 0.0
2018-Feb-16 11:00N 33°46' W 118°13'0 0.0
2018-Feb-16 10:30N 33°46' W 118°13'0 0.0
2018-Feb-16 09:59N 33°46' W 118°13'0 0.0
2018-Feb-16 09:30N 33°46' W 118°13'0 0.0
2018-Feb-16 09:00N 33°46' W 118°13'0 0.0
2018-Feb-16 08:30N 33°46' W 118°13'0 0.0
2018-Feb-16 08:00N 33°46' W 118°13'0 0.0
2018-Feb-16 07:30N 33°46' W 118°13'0 0.0
2018-Feb-16 07:00N 33°46' W 118°13'0 0.0
2018-Feb-16 06:30N 33°46' W 118°13'0 0.0
2018-Feb-16 06:00N 33°46' W 118°13'0 0.0
2018-Feb-16 05:30N 33°46' W 118°13'0 0.0
2018-Feb-16 05:00N 33°46' W 118°13'0 0.0
2018-Feb-16 04:30N 33°46' W 118°13'0 0.0
2018-Feb-16 04:00N 33°46' W 118°13'0 0.0
2018-Feb-16 03:30N 33°46' W 118°13'0 0.9
2018-Feb-16 03:01N 33°46' W 118°13'2 3.1
2018-Feb-16 02:29N 33°44' W 118°13'3 5.6
2018-Feb-16 02:00N 33°42' W 118°10'2 4.6
2018-Feb-16 01:30N 33°41' W 118°08'0 0.4
2018-Feb-16 00:55N 33°41' W 118°08'0 0.1
2018-Feb-16 00:28N 33°41' W 118°08'0 0.0
2018-Feb-15 23:58N 33°41' W 118°08'0 0.0
2018-Feb-15 23:28N 33°41' W 118°08'0 0.0
2018-Feb-15 22:58N 33°41' W 118°08'0 0.0
2018-Feb-15 22:28N 33°41' W 118°08'0 0.0
2018-Feb-15 21:58N 33°41' W 118°08'0 0.0
2018-Feb-15 21:28N 33°41' W 118°08'0 0.0
2018-Feb-15 20:58N 33°41' W 118°08'0 0.1
2018-Feb-15 20:28N 33°41' W 118°08'0 0.0
2018-Feb-15 19:58N 33°41' W 118°08'0 0.1
2018-Feb-15 19:28N 33°41' W 118°08'0 0.1
2018-Feb-15 18:58N 33°41' W 118°08'0 0.1
2018-Feb-15 18:28N 33°41' W 118°08'0 0.1
2018-Feb-15 17:58N 33°41' W 118°08'0 0.0
2018-Feb-15 17:25N 33°41' W 118°08'0 0.0
2018-Feb-15 16:49N 33°41' W 118°08'0 0.0
2018-Feb-15 16:19N 33°41' W 118°08'0 0.0
2018-Feb-15 15:58N 33°41' W 118°08'0 0.0
2018-Feb-15 15:28N 33°41' W 118°08'0 0.0
2018-Feb-15 14:58N 33°41' W 118°08'0 0.0
2018-Feb-15 09:28N 33°41' W 118°08'0 0.0
2018-Feb-15 03:49N 33°41' W 118°08'0 0.0
2018-Feb-15 02:19N 33°41' W 118°08'0 0.0
2018-Feb-15 01:55N 33°41' W 118°08'0 0.0
2018-Feb-15 01:28N 33°41' W 118°08'0 0.0
2018-Feb-15 00:58N 33°41' W 118°08'0 0.0
2018-Feb-15 00:28N 33°41' W 118°08'0 0.0
2018-Feb-14 23:58N 33°41' W 118°08'0 0.1
2018-Feb-14 23:28N 33°41' W 118°08'0 0.0
2018-Feb-14 22:52N 33°41' W 118°08'0 0.0
2018-Feb-14 22:28N 33°41' W 118°08'0 0.0
2018-Feb-14 21:55N 33°41' W 118°08'0 0.1
2018-Feb-14 21:28N 33°41' W 118°08'0 0.1
2018-Feb-14 20:58N 33°41' W 118°08'0 0.1
2018-Feb-14 20:22N 33°41' W 118°08'0 0.0
2018-Feb-14 19:55N 33°41' W 118°08'0 0.0
2018-Feb-14 19:25N 33°41' W 118°08'0 0.1
2018-Feb-14 18:58N 33°41' W 118°08'0 0.0
2018-Feb-14 18:28N 33°41' W 118°08'0 0.1
2018-Feb-14 17:58N 33°41' W 118°08'0 0.1
2018-Feb-14 17:28N 33°41' W 118°08'0 0.0
2018-Feb-14 16:58N 33°41' W 118°08'0 0.0
2018-Feb-14 16:28N 33°41' W 118°08'0 0.1
2018-Feb-14 15:55N 33°41' W 118°08'0 0.1
2018-Feb-14 15:19N 33°41' W 118°08'0 0.1
2018-Feb-14 14:58N 33°41' W 118°08'0 0.0
2018-Feb-14 01:43N 33°41' W 118°08'0 0.0
2018-Feb-14 01:28N 33°41' W 118°08'0 0.0
2018-Feb-14 00:58N 33°41' W 118°08'0 0.0
2018-Feb-14 00:28N 33°41' W 118°08'0 0.0
2018-Feb-13 23:55N 33°41' W 118°08'0 0.1
2018-Feb-13 23:28N 33°41' W 118°08'0 0.0
2018-Feb-13 22:52N 33°41' W 118°08'0 0.0
2018-Feb-13 22:22N 33°41' W 118°08'0 0.0
2018-Feb-13 21:58N 33°41' W 118°08'0 0.0
2018-Feb-13 21:28N 33°41' W 118°08'0 0.0
2018-Feb-13 20:58N 33°41' W 118°08'0 0.1
2018-Feb-13 20:28N 33°41' W 118°08'0 0.0
2018-Feb-13 19:58N 33°41' W 118°08'0 0.0
2018-Feb-13 19:25N 33°41' W 118°08'0 0.1
2018-Feb-13 18:49N 33°41' W 118°08'0 0.0
2018-Feb-13 18:28N 33°41' W 118°08'0 0.1
2018-Feb-13 17:22N 33°41' W 118°08'0 0.1
2018-Feb-13 16:37N 33°41' W 118°08'0 0.0
2018-Feb-13 16:28N 33°41' W 118°08'0 0.0
2018-Feb-13 15:58N 33°41' W 118°08'0 0.1
2018-Feb-13 15:19N 33°41' W 118°08'0 0.0
2018-Feb-13 14:52N 33°41' W 118°08'  
Track history (hours):
 
Tides and Currents Weather Stations Pressure Air Temp Water Temp Dewpoint Dewpoint Depression Visibility Wind Speed Wind Dir Waves Ship Positions

Aquatravesia

Last reported at 2018-Feb-23 05:30 UTC. Time now 2018-Feb-23 05:57 UTC.
Position N 37°46' W 122°21'.

Length 244 m; draft 9.1 m.

Type: Ship. MMSI: 636017859.

Date/timePositionNaut miles runAvg speedWind from/ knotsBaromVisibWave heightAir tempDewpointWater temp
2018-Feb-23 05:30N 37°46' W 122°21'0 0.1
2018-Feb-23 05:01N 37°46' W 122°21'0 0.1
2018-Feb-23 04:28N 37°46' W 122°21'0 0.1
2018-Feb-23 03:59N 37°46' W 122°21'0 0.2
2018-Feb-23 03:29N 37°46' W 122°21'0 0.1
2018-Feb-23 02:59N 37°46' W 122°21'0 0.1
2018-Feb-23 02:29N 37°46' W 122°21'0 0.0
2018-Feb-23 01:58N 37°46' W 122°21'0 0.1
2018-Feb-23 01:28N 37°46' W 122°21'0 0.0
2018-Feb-23 00:59N 37°46' W 122°21'0 0.1
2018-Feb-23 00:29N 37°46' W 122°21'0 0.0
2018-Feb-22 23:59N 37°46' W 122°21'1 1.6
2018-Feb-22 23:31N 37°46' W 122°22'510.6
2018-Feb-22 23:00N 37°51' W 122°24'713.2
2018-Feb-22 22:30N 37°57' W 122°27'612.8
2018-Feb-22 22:01N 38°02' W 122°22'713.5
2018-Feb-22 21:28N 38°04' W 122°13'5 0.1
2018-Feb-21 11:42N 38°02' W 122°07'0 0.5
2018-Feb-21 11:30N 38°02' W 122°07'1 2.4
2018-Feb-21 10:59N 38°02' W 122°09'4 7.3
2018-Feb-21 10:28N 38°04' W 122°13'4 8.9
2018-Feb-21 10:01N 38°03' W 122°18'4 7.3
2018-Feb-21 09:30N 38°02' W 122°23'5 9.4
2018-Feb-21 09:01N 37°58' W 122°26'510.3
2018-Feb-21 08:30N 37°53' W 122°26'4 8.2
2018-Feb-21 08:01N 37°49' W 122°25'511.0
2018-Feb-21 07:31N 37°47' W 122°32'612.2
2018-Feb-21 07:00N 37°45' W 122°39'5 9.7
2018-Feb-21 06:31N 37°42' W 122°44'510.0
2018-Feb-21 06:00N 37°39' W 122°49'510.5
2018-Feb-21 05:31N 37°36' W 122°55'510.4
2018-Feb-21 05:00N 37°33' W 123°00'5 9.2
2018-Feb-21 04:30N 37°33' W 123°06'510.5
2018-Feb-21 04:00N 37°34' W 123°12'710.8
2018-Feb-21 03:20N 37°35' W 123°21'510.6
2018-Feb-21 02:53N 37°36' W 123°27'3 8.4
2018-Feb-21 02:28N 37°36' W 123°32'1 2.6
2018-Feb-21 02:00N 37°37' W 123°33'1 1.3
2018-Feb-21 01:30N 37°37' W 123°33'2 1.3
2018-Feb-21 00:08N 37°39' W 123°35'0 1.3
2018-Feb-20 23:52N 37°39' W 123°35'2 1.0
2018-Feb-20 21:31N 37°40' W 123°32'0 9.9
2018-Feb-20 21:30N 37°40' W 123°32'5 9.1
2018-Feb-20 21:00N 37°37' W 123°27'12 9.0
2018-Feb-20 19:41N 37°31' W 123°14'2 8.9
2018-Feb-20 19:29N 37°30' W 123°12'4 9.0
2018-Feb-20 19:00N 37°28' W 123°08'5 9.5
2018-Feb-20 18:30N 37°23' W 123°05'7 9.8
2018-Feb-20 17:45N 37°17' W 123°01'310.1
2018-Feb-20 17:29N 37°14' W 122°60'510.0
2018-Feb-20 17:00N 37°10' W 122°57'139 8.5
2018-Feb-20 00:40N 35°07' W 121°36'1 7.9
2018-Feb-20 00:30N 35°06' W 121°35'4 8.1
2018-Feb-20 00:00N 35°03' W 121°33'4 8.1
2018-Feb-19 23:30N 34°59' W 121°30'4 7.9
2018-Feb-19 23:00N 34°56' W 121°28'4 8.3
2018-Feb-19 22:30N 34°52' W 121°25'4 8.3
2018-Feb-19 22:00N 34°48' W 121°23'4 8.3
2018-Feb-19 21:30N 34°45' W 121°20'4 8.1
2018-Feb-19 21:00N 34°41' W 121°17'4 8.1
2018-Feb-19 20:30N 34°38' W 121°15'4 8.1
2018-Feb-19 20:00N 34°35' W 121°12'4 9.0
2018-Feb-19 19:30N 34°31' W 121°10'5 9.2
2018-Feb-19 19:00N 34°29' W 121°04'510.1
2018-Feb-19 18:30N 34°28' W 120°58'510.6
2018-Feb-19 18:00N 34°27' W 120°52'510.2
2018-Feb-19 17:30N 34°25' W 120°46'510.3
2018-Feb-19 17:00N 34°24' W 120°40'510.7
2018-Feb-19 16:30N 34°22' W 120°34'510.6
2018-Feb-19 16:00N 34°21' W 120°28'611.3
2018-Feb-19 15:30N 34°19' W 120°21'711.8
2018-Feb-19 14:55N 34°17' W 120°13'512.0
2018-Feb-19 14:30N 34°16' W 120°07'612.0
2018-Feb-19 14:00N 34°15' W 120°00'611.7
2018-Feb-19 13:28N 34°13' W 119°53'611.6
2018-Feb-19 12:58N 34°12' W 119°46'611.1
2018-Feb-19 12:28N 34°10' W 119°40'611.2
2018-Feb-19 11:57N 34°08' W 119°33'510.9
2018-Feb-19 11:30N 34°07' W 119°27'510.6
2018-Feb-19 11:00N 34°06' W 119°21'610.3
2018-Feb-19 10:27N 34°04' W 119°15'510.1
2018-Feb-19 09:56N 34°02' W 119°09'610.4
2018-Feb-19 09:24N 33°59' W 119°03'410.7
2018-Feb-19 08:59N 33°57' W 118°59'511.1
2018-Feb-19 08:30N 33°54' W 118°53'510.7
2018-Feb-19 08:00N 33°51' W 118°47'510.6
2018-Feb-19 07:30N 33°49' W 118°42'611.2
2018-Feb-19 07:00N 33°46' W 118°36'611.2
2018-Feb-19 06:30N 33°43' W 118°30'611.4
2018-Feb-19 06:00N 33°40' W 118°24'710.9
2018-Feb-19 05:23N 33°38' W 118°16'410.0
2018-Feb-19 05:00N 33°40' W 118°12'4 8.2
2018-Feb-19 04:30N 33°44' W 118°11'3 5.2
2018-Feb-19 04:00N 33°46' W 118°13'1 1.4
2018-Feb-19 03:30N 33°46' W 118°13'0 0.0
2018-Feb-19 03:00N 33°46' W 118°13'0 0.0
2018-Feb-19 02:30N 33°46' W 118°13'0 0.0
2018-Feb-19 02:00N 33°46' W 118°13'0 0.0
2018-Feb-19 01:30N 33°46' W 118°13'0 0.0
2018-Feb-19 01:00N 33°46' W 118°13'0 0.0
2018-Feb-19 00:30N 33°46' W 118°13'0 0.0
2018-Feb-19 00:00N 33°46' W 118°13'0 0.0
2018-Feb-18 23:30N 33°46' W 118°13'0 0.0
2018-Feb-18 23:00N 33°46' W 118°13'0 0.0
2018-Feb-18 22:30N 33°46' W 118°13'0 0.0
2018-Feb-18 22:00N 33°46' W 118°13'0 0.0
2018-Feb-18 21:30N 33°46' W 118°13'0 0.0
2018-Feb-18 21:00N 33°46' W 118°13'0 0.0
2018-Feb-18 20:30N 33°46' W 118°13'0 0.0
2018-Feb-18 20:00N 33°46' W 118°13'0 0.0
2018-Feb-18 19:30N 33°46' W 118°13'0 0.0
2018-Feb-18 19:00N 33°46' W 118°13'0 0.0
2018-Feb-18 18:30N 33°46' W 118°13'0 0.0
2018-Feb-18 18:00N 33°46' W 118°13'0 0.0
2018-Feb-18 17:30N 33°46' W 118°13'0 0.0
2018-Feb-18 17:00N 33°46' W 118°13'0 0.0
2018-Feb-18 16:30N 33°46' W 118°13'0 0.0
2018-Feb-18 16:00N 33°46' W 118°13'0 0.0
2018-Feb-18 15:31N 33°46' W 118°13'0 0.0
2018-Feb-18 15:00N 33°46' W 118°13'0 0.0
2018-Feb-18 14:30N 33°46' W 118°13'0 0.0
2018-Feb-18 13:59N 33°46' W 118°13'0 0.0
2018-Feb-18 13:29N 33°46' W 118°13'0 0.0
2018-Feb-18 13:00N 33°46' W 118°13'0 0.0
2018-Feb-18 12:31N 33°46' W 118°13'0 0.0
2018-Feb-18 12:00N 33°46' W 118°13'0 0.0
2018-Feb-18 11:30N 33°46' W 118°13'0 0.0
2018-Feb-18 10:59N 33°46' W 118°13'0 0.0
2018-Feb-18 10:31N 33°46' W 118°13'0 0.0
2018-Feb-18 10:00N 33°46' W 118°13'0 0.0
2018-Feb-18 09:31N 33°46' W 118°13'0 0.0
2018-Feb-18 09:00N 33°46' W 118°13'0 0.0
2018-Feb-18 08:30N 33°46' W 118°13'0 0.0
2018-Feb-18 08:00N 33°46' W 118°13'0 0.0
2018-Feb-18 07:30N 33°46' W 118°13'0 0.0
2018-Feb-18 07:00N 33°46' W 118°13'0 0.0
2018-Feb-18 06:30N 33°46' W 118°13'0 0.0
2018-Feb-18 05:59N 33°46' W 118°13'0 0.0
2018-Feb-18 05:30N 33°46' W 118°13'0 0.0
2018-Feb-18 05:01N 33°46' W 118°13'0 0.0
2018-Feb-18 04:30N 33°46' W 118°13'0 0.0
2018-Feb-18 04:01N 33°46' W 118°13'0 0.0
2018-Feb-18 03:30N 33°46' W 118°13'0 0.0
2018-Feb-18 03:00N 33°46' W 118°13'0 0.0
2018-Feb-18 02:30N 33°46' W 118°13'0 0.0
2018-Feb-18 02:01N 33°46' W 118°13'0 0.0
2018-Feb-18 01:30N 33°46' W 118°13'0 0.0
2018-Feb-18 01:00N 33°46' W 118°13'0 0.0
2018-Feb-18 00:30N 33°46' W 118°13'0 0.0
2018-Feb-18 00:00N 33°46' W 118°13'0 0.0
2018-Feb-17 23:31N 33°46' W 118°13'0 0.0
2018-Feb-17 23:00N 33°46' W 118°13'0 0.0
2018-Feb-17 22:31N 33°46' W 118°13'0 0.0
2018-Feb-17 22:00N 33°46' W 118°13'0 0.0
2018-Feb-17 21:30N 33°46' W 118°13'0 0.0
2018-Feb-17 21:00N 33°46' W 118°13'0 0.0
2018-Feb-17 20:30N 33°46' W 118°13'0 0.0
2018-Feb-17 20:00N 33°46' W 118°13'0 0.0
2018-Feb-17 19:30N 33°46' W 118°13'0 0.0
2018-Feb-17 19:00N 33°46' W 118°13'0 0.0
2018-Feb-17 18:30N 33°46' W 118°13'0 0.0
2018-Feb-17 18:00N 33°46' W 118°13'0 0.0
2018-Feb-17 17:30N 33°46' W 118°13'0 0.0
2018-Feb-17 17:00N 33°46' W 118°13'0 0.0
2018-Feb-17 16:30N 33°46' W 118°13'0 0.0
2018-Feb-17 16:00N 33°46' W 118°13'0 0.0
2018-Feb-17 15:30N 33°46' W 118°13'0 0.0
2018-Feb-17 15:00N 33°46' W 118°13'0 0.0
2018-Feb-17 14:29N 33°46' W 118°13'0 0.0
2018-Feb-17 13:58N 33°46' W 118°13'0 0.0
2018-Feb-17 13:30N 33°46' W 118°13'0 0.0
2018-Feb-17 13:00N 33°46' W 118°13'0 0.0
2018-Feb-17 12:30N 33°46' W 118°13'0 0.0
2018-Feb-17 12:00N 33°46' W 118°13'0 0.0
2018-Feb-17 11:30N 33°46' W 118°13'0 0.0
2018-Feb-17 11:00N 33°46' W 118°13'0 0.0
2018-Feb-17 10:30N 33°46' W 118°13'0 0.0
2018-Feb-17 10:00N 33°46' W 118°13'0 0.0
2018-Feb-17 09:28N 33°46' W 118°13'0 0.0
2018-Feb-17 09:00N 33°46' W 118°13'0 0.0
2018-Feb-17 08:30N 33°46' W 118°13'0 0.0
2018-Feb-17 07:56N 33°46' W 118°13'0 0.0
2018-Feb-17 07:30N 33°46' W 118°13'0 0.0
2018-Feb-17 07:00N 33°46' W 118°13'0 0.0
2018-Feb-17 06:30N 33°46' W 118°13'0 0.0
2018-Feb-17 06:00N 33°46' W 118°13'0 0.0
2018-Feb-17 05:30N 33°46' W 118°13'0 0.0
2018-Feb-17 05:00N 33°46' W 118°13'0 0.0
2018-Feb-17 04:30N 33°46' W 118°13'0 0.0
2018-Feb-17 04:00N 33°46' W 118°13'0 0.0
2018-Feb-17 03:30N 33°46' W 118°13'0 0.0
2018-Feb-17 03:00N 33°46' W 118°13'0 0.0
2018-Feb-17 02:30N 33°46' W 118°13'0 0.0
2018-Feb-17 02:00N 33°46' W 118°13'0 0.0
2018-Feb-17 01:30N 33°46' W 118°13'0 0.0
2018-Feb-17 01:00N 33°46' W 118°13'0 0.0
2018-Feb-17 00:30N 33°46' W 118°13'0 0.0
2018-Feb-17 00:00N 33°46' W 118°13'0 0.0
2018-Feb-16 23:30N 33°46' W 118°13'0 0.0
2018-Feb-16 23:00N 33°46' W 118°13'0 0.0
2018-Feb-16 22:30N 33°46' W 118°13'0 0.0
2018-Feb-16 22:01N 33°46' W 118°13'0 0.0
2018-Feb-16 21:29N 33°46' W 118°13'0 0.0
2018-Feb-16 21:01N 33°46' W 118°13'0 0.0
2018-Feb-16 20:31N 33°46' W 118°13'0 0.0
2018-Feb-16 20:01N 33°46' W 118°13'0 0.0
2018-Feb-16 19:30N 33°46' W 118°13'0 0.0
2018-Feb-16 19:00N 33°46' W 118°13'0 0.0
2018-Feb-16 18:31N 33°46' W 118°13'0 0.0
2018-Feb-16 18:00N 33°46' W 118°13'0 0.0
2018-Feb-16 17:30N 33°46' W 118°13'0 0.0
2018-Feb-16 17:00N 33°46' W 118°13'0 0.0
2018-Feb-16 16:30N 33°46' W 118°13'0 0.0
2018-Feb-16 16:00N 33°46' W 118°13'0 0.0
2018-Feb-16 15:30N 33°46' W 118°13'0 0.0
2018-Feb-16 15:00N 33°46' W 118°13'0 0.0
2018-Feb-16 14:30N 33°46' W 118°13'0 0.0
2018-Feb-16 13:59N 33°46' W 118°13'0 0.0
2018-Feb-16 13:30N 33°46' W 118°13'0 0.0
2018-Feb-16 13:00N 33°46' W 118°13'0 0.0
2018-Feb-16 12:30N 33°46' W 118°13'0 0.0
2018-Feb-16 12:00N 33°46' W 118°13'0 0.0
2018-Feb-16 11:30N 33°46' W 118°13'0 0.0
2018-Feb-16 11:00N 33°46' W 118°13'0 0.0
2018-Feb-16 10:30N 33°46' W 118°13'0 0.0
2018-Feb-16 09:59N 33°46' W 118°13'0 0.0
2018-Feb-16 09:30N 33°46' W 118°13'0 0.0
2018-Feb-16 09:00N 33°46' W 118°13'0 0.0
2018-Feb-16 08:30N 33°46' W 118°13'0 0.0
2018-Feb-16 08:00N 33°46' W 118°13'0 0.0
2018-Feb-16 07:30N 33°46' W 118°13'0 0.0
2018-Feb-16 07:00N 33°46' W 118°13'0 0.0
2018-Feb-16 06:30N 33°46' W 118°13'0 0.0
2018-Feb-16 06:00N 33°46' W 118°13'0 0.0
2018-Feb-16 05:30N 33°46' W 118°13'0 0.0
2018-Feb-16 05:00N 33°46' W 118°13'0 0.0
2018-Feb-16 04:30N 33°46' W 118°13'0 0.0
2018-Feb-16 04:00N 33°46' W 118°13'0 0.0
2018-Feb-16 03:30N 33°46' W 118°13'0 0.9
2018-Feb-16 03:01N 33°46' W 118°13'2 3.1
2018-Feb-16 02:29N 33°44' W 118°13'3 5.6
2018-Feb-16 02:00N 33°42' W 118°10'2 4.6
2018-Feb-16 01:30N 33°41' W 118°08'0 0.4
2018-Feb-16 00:55N 33°41' W 118°08'0 0.1
2018-Feb-16 00:28N 33°41' W 118°08'0 0.0
2018-Feb-15 23:58N 33°41' W 118°08'0 0.0
2018-Feb-15 23:28N 33°41' W 118°08'0 0.0
2018-Feb-15 22:58N 33°41' W 118°08'0 0.0
2018-Feb-15 22:28N 33°41' W 118°08'0 0.0
2018-Feb-15 21:58N 33°41' W 118°08'0 0.0
2018-Feb-15 21:28N 33°41' W 118°08'0 0.0
2018-Feb-15 20:58N 33°41' W 118°08'0 0.1
2018-Feb-15 20:28N 33°41' W 118°08'0 0.0
2018-Feb-15 19:58N 33°41' W 118°08'0 0.1
2018-Feb-15 19:28N 33°41' W 118°08'0 0.1
2018-Feb-15 18:58N 33°41' W 118°08'0 0.1
2018-Feb-15 18:28N 33°41' W 118°08'0 0.1
2018-Feb-15 17:58N 33°41' W 118°08'0 0.0
2018-Feb-15 17:25N 33°41' W 118°08'0 0.0
2018-Feb-15 16:49N 33°41' W 118°08'0 0.0
2018-Feb-15 16:19N 33°41' W 118°08'0 0.0
2018-Feb-15 15:58N 33°41' W 118°08'0 0.0
2018-Feb-15 15:28N 33°41' W 118°08'0 0.0
2018-Feb-15 14:58N 33°41' W 118°08'0 0.0
2018-Feb-15 09:28N 33°41' W 118°08'0 0.0
2018-Feb-15 03:49N 33°41' W 118°08'0 0.0
2018-Feb-15 02:19N 33°41' W 118°08'0 0.0
2018-Feb-15 01:55N 33°41' W 118°08'0 0.0
2018-Feb-15 01:28N 33°41' W 118°08'0 0.0
2018-Feb-15 00:58N 33°41' W 118°08'0 0.0
2018-Feb-15 00:28N 33°41' W 118°08'0 0.0
2018-Feb-14 23:58N 33°41' W 118°08'0 0.1
2018-Feb-14 23:28N 33°41' W 118°08'0 0.0
2018-Feb-14 22:52N 33°41' W 118°08'0 0.0
2018-Feb-14 22:28N 33°41' W 118°08'0 0.0
2018-Feb-14 21:55N 33°41' W 118°08'0 0.1
2018-Feb-14 21:28N 33°41' W 118°08'0 0.1
2018-Feb-14 20:58N 33°41' W 118°08'0 0.1
2018-Feb-14 20:22N 33°41' W 118°08'0 0.0
2018-Feb-14 19:55N 33°41' W 118°08'0 0.0
2018-Feb-14 19:25N 33°41' W 118°08'0 0.1
2018-Feb-14 18:58N 33°41' W 118°08'0 0.0
2018-Feb-14 18:28N 33°41' W 118°08'0 0.1
2018-Feb-14 17:58N 33°41' W 118°08'0 0.1
2018-Feb-14 17:28N 33°41' W 118°08'0 0.0
2018-Feb-14 16:58N 33°41' W 118°08'0 0.0
2018-Feb-14 16:28N 33°41' W 118°08'0 0.1
2018-Feb-14 15:55N 33°41' W 118°08'0 0.1
2018-Feb-14 15:19N 33°41' W 118°08'0 0.1
2018-Feb-14 14:58N 33°41' W 118°08'0 0.0
2018-Feb-14 01:43N 33°41' W 118°08'0 0.0
2018-Feb-14 01:28N 33°41' W 118°08'0 0.0
2018-Feb-14 00:58N 33°41' W 118°08'0 0.0
2018-Feb-14 00:28N 33°41' W 118°08'0 0.0
2018-Feb-13 23:55N 33°41' W 118°08'0 0.1
2018-Feb-13 23:28N 33°41' W 118°08'0 0.0
2018-Feb-13 22:52N 33°41' W 118°08'0 0.0
2018-Feb-13 22:22N 33°41' W 118°08'0 0.0
2018-Feb-13 21:58N 33°41' W 118°08'0 0.0
2018-Feb-13 21:28N 33°41' W 118°08'0 0.0
2018-Feb-13 20:58N 33°41' W 118°08'0 0.1
2018-Feb-13 20:28N 33°41' W 118°08'0 0.0
2018-Feb-13 19:58N 33°41' W 118°08'0 0.0
2018-Feb-13 19:25N 33°41' W 118°08'0 0.1
2018-Feb-13 18:49N 33°41' W 118°08'0 0.0
2018-Feb-13 18:28N 33°41' W 118°08'0 0.1
2018-Feb-13 17:22N 33°41' W 118°08'0 0.1
2018-Feb-13 16:37N 33°41' W 118°08'0 0.0
2018-Feb-13 16:28N 33°41' W 118°08'0 0.0
2018-Feb-13 15:58N 33°41' W 118°08'0 0.1
2018-Feb-13 15:19N 33°41' W 118°08'0 0.0
2018-Feb-13 14:52N 33°41' W 118°08'  

Dump ship's entire track history